Time;durP1;ratioP1;P1;durP2;ratioP2;P2;SDS_P1;SDS_P2;PMS_P1;PMS_P2;Temp;Humidity;BMP_temperature;BMP_pressure;BME280_temperature;BME280_humidity;BME280_pressure;Samples;Min_cycle;Max_cycle;Signal;HPM_P1;HPM_P2
2021/04/16 06:10:56;;;;;;;11.45;8.98;;;;;;;;;;5091125;27;20398;-69
2021/04/16 06:13:21;;;;;;;11.35;9.15;;;;;;;;;;5094463;28;20416;-69
2021/04/16 06:15:47;;;;;;;12.52;9.30;;;;;;;;;;5095161;28;20063;-70
2021/04/16 06:18:12;;;;;;;10.68;8.63;;;;;;;;;;5093471;28;20020;-70
2021/04/16 06:20:38;;;;;;;8.88;7.88;;;;;;;;;;5091393;28;20019;-71
2021/04/16 06:23:03;;;;;;;9.63;7.78;;;;;;;;;;5097401;28;20073;-71
2021/04/16 06:25:32;;;;;;;8.80;7.63;;;;;;;;;;5082823;28;20447;-68
2021/04/16 06:27:59;;;;;;;;;;;;;;;;;;5076327;28;20032;-69
2021/04/16 06:30:25;;;;;;;8.45;7.00;;;;;;;;;;5095959;28;19920;-69
2021/04/16 06:32:59;;;;;;;8.23;7.40;;;;;;;;;;5085439;28;20022;-68
2021/04/16 06:35:24;;;;;;;9.48;7.93;;;;;;;;;;5066140;28;20488;-70
2021/04/16 06:37:50;;;;;;;9.40;7.35;;;;;;;;;;5067479;28;20013;-71
2021/04/16 06:40:15;;;;;;;13.23;7.25;;;;;;;;;;5074912;28;20027;-70
2021/04/16 06:42:41;;;;;;;12.05;7.93;;;;;;;;;;5079891;28;20476;-71
2021/04/16 06:45:12;;;;;;;9.30;7.90;;;;;;;;;;5083061;28;20074;-72
2021/04/16 06:47:42;;;;;;;9.18;7.40;;;;;;;;;;5087705;28;20020;-67
2021/04/16 06:50:10;;;;;;;8.13;6.57;;;;;;;;;;5100001;28;20463;-68
2021/04/16 06:52:39;;;;;;;9.10;6.80;;;;;;;;;;5099018;28;20024;-68
2021/04/16 06:55:06;;;;;;;8.40;7.05;;;;;;;;;;5081685;28;20021;-67
2021/04/16 06:57:31;;;;;;;9.38;7.20;;;;;;;;;;5085988;28;20469;-67
2021/04/16 07:00:00;;;;;;;7.82;7.03;;;;;;;;;;5078358;28;20031;-67
2021/04/16 07:02:31;;;;;;;8.52;7.63;;;;;;;;;;5087401;28;20020;-66
2021/04/16 07:04:59;;;;;;;8.73;6.68;;;;;;;;;;5087774;28;20020;-64
2021/04/16 07:07:29;;;;;;;13.23;7.20;;;;;;;;;;5087598;28;20344;-65
2021/04/16 07:10:00;;;;;;;8.18;6.43;;;;;;;;;;5092070;28;20063;-65
2021/04/16 07:12:26;;;;;;;13.20;7.70;;;;;;;;;;5085371;28;20064;-64
2021/04/16 07:14:52;;;;;;;8.70;6.38;;;;;;;;;;5071693;28;20028;-67
2021/04/16 07:17:20;;;;;;;7.13;6.35;;;;;;;;;;5069150;28;20017;-66
2021/04/16 07:19:45;;;;;;;7.65;5.45;;;;;;;;;;5074616;28;20043;-66
2021/04/16 07:22:20;;;;;;;8.32;6.15;;;;;;;;;;5094376;28;20059;-66
2021/04/16 07:24:45;;;;;;;6.50;5.82;;;;;;;;;;5061459;28;20400;-68
2021/04/16 07:27:14;;;;;;;6.07;5.47;;;;;;;;;;5071564;28;20024;-69
2021/04/16 07:29:43;;;;;;;6.25;5.07;;;;;;;;;;5071563;28;20024;-69
2021/04/16 07:32:12;;;;;;;7.10;5.45;;;;;;;;;;5072086;28;20095;-70
2021/04/16 07:34:44;;;;;;;5.82;4.88;;;;;;;;;;5072110;28;20021;-70
2021/04/16 07:37:12;;;;;;;5.95;5.35;;;;;;;;;;5066337;28;20046;-69
2021/04/16 07:39:43;;;;;;;5.95;5.32;;;;;;;;;;5049105;28;20059;-69
2021/04/16 07:42:09;;;;;;;6.72;6.00;;;;;;;;;;5069106;28;20170;-69
2021/04/16 07:44:36;;;;;;;8.57;5.47;;;;;;;;;;5056743;28;20025;-68
2021/04/16 07:47:11;;;;;;;8.93;5.68;;;;;;;;;;5053239;28;20104;-68
2021/04/16 07:49:36;;;;;;;7.95;5.20;;;;;;;;;;5052887;28;20087;-69
2021/04/16 07:52:11;;;;;;;6.65;5.20;;;;;;;;;;5056536;28;20021;-70
2021/04/16 07:54:36;;;;;;;5.38;4.53;;;;;;;;;;5073515;28;20503;-70
2021/04/16 07:57:04;;;;;;;6.72;5.38;;;;;;;;;;5071730;28;20031;-73
2021/04/16 07:59:30;;;;;;;6.22;5.00;;;;;;;;;;5077441;28;20017;-72
2021/04/16 08:01:55;;;;;;;5.38;4.60;;;;;;;;;;5073376;28;20032;-70
2021/04/16 08:04:21;;;;;;;6.07;5.47;;;;;;;;;;5075047;28;20017;-70
2021/04/16 08:06:47;;;;;;;6.22;5.45;;;;;;;;;;5053279;28;20554;-71
2021/04/16 08:09:13;;;;;;;6.10;4.85;;;;;;;;;;5054627;28;20056;-69
2021/04/16 08:11:39;;;;;;;4.88;4.38;;;;;;;;;;5051580;28;20028;-70
2021/04/16 08:14:05;;;;;;;8.45;4.82;;;;;;;;;;5053016;28;20017;-71
2021/04/16 08:16:32;;;;;;;5.53;4.63;;;;;;;;;;5071323;28;20023;-69
2021/04/16 08:18:59;;;;;;;5.38;4.55;;;;;;;;;;5086261;28;20027;-69
2021/04/16 08:21:25;;;;;;;5.00;4.38;;;;;;;;;;5081366;28;20020;-68
2021/04/16 08:24:00;;;;;;;5.10;4.15;;;;;;;;;;5083404;28;20023;-68
2021/04/16 08:26:28;;;;;;;5.00;3.92;;;;;;;;;;5074628;28;20016;-70
2021/04/16 08:28:54;;;;;;;5.55;4.15;;;;;;;;;;5079169;28;20059;-70
2021/04/16 08:31:23;;;;;;;5.70;4.88;;;;;;;;;;5072268;28;20489;-71
2021/04/16 08:33:50;;;;;;;7.22;5.03;;;;;;;;;;5070431;28;20024;-68
2021/04/16 08:36:27;;;;;;;10.00;4.32;;;;;;;;;;5080774;28;20674;-67
2021/04/16 08:39:02;;;;;;;5.15;4.65;;;;;;;;;;5060551;28;20082;-67
2021/04/16 08:41:31;;;;;;;7.65;4.88;;;;;;;;;;5072300;28;20023;-67
2021/04/16 08:43:57;;;;;;;;;;;;;;;;;;5065977;28;20052;-67
2021/04/16 08:46:32;;;;;;;8.23;4.93;;;;;;;;;;5065825;28;20344;-67
2021/04/16 08:49:04;;;;;;;7.07;4.38;;;;;;;;;;5053460;28;20107;-69
2021/04/16 08:51:31;;;;;;;7.45;4.72;;;;;;;;;;5067623;28;20083;-68
2021/04/16 08:53:59;;;;;;;5.22;4.20;;;;;;;;;;5066724;28;20024;-68
2021/04/16 08:56:28;;;;;;;8.00;4.60;;;;;;;;;;5064953;28;20027;-69
2021/04/16 08:58:54;;;;;;;6.10;4.13;;;;;;;;;;5066983;28;20067;-68
2021/04/16 09:01:21;;;;;;;11.88;5.35;;;;;;;;;;5077083;28;20428;-68
2021/04/16 09:03:48;;;;;;;6.85;5.18;;;;;;;;;;5070209;28;20025;-67
2021/04/16 09:06:24;;;;;;;8.35;4.63;;;;;;;;;;5065999;28;20025;-66
2021/04/16 09:08:50;;;;;;;5.43;4.50;;;;;;;;;;5058722;28;20086;-67
2021/04/16 09:11:35;;;;;;;7.47;4.93;;;;;;;;;;5073147;28;20017;-67
2021/04/16 09:14:01;;;;;;;9.20;4.97;;;;;;;;;;5058420;28;20024;-68
2021/04/16 09:16:36;;;;;;;9.40;4.55;;;;;;;;;;5072597;28;20028;-67
2021/04/16 09:19:11;;;;;;;9.13;5.20;;;;;;;;;;5049891;28;20029;-66
2021/04/16 09:21:36;;;;;;;6.43;4.50;;;;;;;;;;5082955;28;20408;-69
2021/04/16 09:24:03;;;;;;;8.55;5.07;;;;;;;;;;5092297;28;20019;-69
2021/04/16 09:26:38;;;;;;;10.90;5.30;;;;;;;;;;5090793;28;20116;-69
2021/04/16 09:29:03;;;;;;;8.93;4.45;;;;;;;;;;5090196;28;20400;-69
2021/04/16 09:31:38;;;;;;;5.40;4.63;;;;;;;;;;5091639;28;20016;-68
2021/04/16 09:34:06;;;;;;;5.20;4.57;;;;;;;;;;5091227;28;20055;-68
2021/04/16 09:36:32;;;;;;;5.22;4.72;;;;;;;;;;5078149;28;20049;-68
2021/04/16 09:39:12;;;;;;;6.10;5.10;;;;;;;;;;5052812;28;20025;-70
2021/04/16 09:41:38;;;;;;;5.90;5.03;;;;;;;;;;5049928;28;20021;-69
2021/04/16 09:44:14;;;;;;;7.43;4.97;;;;;;;;;;5071212;28;20058;-68
2021/04/16 09:46:44;;;;;;;6.30;5.10;;;;;;;;;;5071327;28;20479;-69
2021/04/16 09:49:12;;;;;;;6.72;4.75;;;;;;;;;;5069934;28;20024;-67
2021/04/16 09:51:39;;;;;;;5.80;4.97;;;;;;;;;;5071507;28;20016;-68
2021/04/16 09:54:06;;;;;;;10.23;5.95;;;;;;;;;;5070965;28;20017;-68
2021/04/16 09:56:31;;;;;;;5.72;5.13;;;;;;;;;;5070444;28;20020;-68
2021/04/16 09:58:58;;;;;;;7.45;5.20;;;;;;;;;;5071616;28;20013;-69
2021/04/16 10:01:26;;;;;;;6.60;5.28;;;;;;;;;;5070434;28;20023;-67
2021/04/16 10:03:55;;;;;;;4.28;3.83;;;;;;;;;;5071862;28;20028;-67
2021/04/16 10:06:28;;;;;;;8.05;4.60;;;;;;;;;;5072149;28;20032;-68
2021/04/16 10:09:03;;;;;;;6.15;4.80;;;;;;;;;;5074652;28;20040;-69
2021/04/16 10:11:29;;;;;;;6.07;5.05;;;;;;;;;;5082440;28;20510;-70
2021/04/16 10:14:11;;;;;;;8.30;4.82;;;;;;;;;;5077737;28;20045;-69
2021/04/16 10:16:38;;;;;;;6.15;4.75;;;;;;;;;;5081700;28;20365;-68
2021/04/16 10:19:09;;;;;;;4.90;4.40;;;;;;;;;;5076617;28;20385;-67
2021/04/16 10:21:34;;;;;;;24.02;6.45;;;;;;;;;;5084287;28;20065;-69
2021/04/16 10:24:47;;;;;;;5.07;4.55;;;;;;;;;;5071885;28;20013;-71
2021/04/16 11:18:56;;;;;;;6.80;5.00;;;;;;;;;;5070515;28;20392;-70
2021/04/16 12:37:59;;;;;;;8.77;5.95;;;;;;;;;;5082899;28;20028;-77
2021/04/16 12:40:26;;;;;;;11.07;6.35;;;;;;;;;;5058603;28;20025;-63
2021/04/16 12:42:53;;;;;;;10.07;6.88;;;;;;;;;;5071612;28;20077;-61
2021/04/16 12:45:19;;;;;;;8.98;6.53;;;;;;;;;;5069341;28;20354;-61
2021/04/16 12:47:45;;;;;;;8.38;6.70;;;;;;;;;;5060774;28;20013;-62
2021/04/16 12:50:12;;;;;;;9.88;6.15;;;;;;;;;;5067403;28;20033;-67
2021/04/16 12:52:37;;;;;;;9.52;6.82;;;;;;;;;;5065503;28;20028;-66
2021/04/16 12:55:02;;;;;;;9.05;6.93;;;;;;;;;;5055663;28;20016;-59
2021/04/16 12:57:38;;;;;;;10.07;7.47;;;;;;;;;;5069629;28;20461;-62
2021/04/16 13:00:06;;;;;;;10.80;7.05;;;;;;;;;;5072124;28;20477;-62
2021/04/16 13:02:32;;;;;;;10.23;7.22;;;;;;;;;;5069743;28;20008;-57
2021/04/16 13:04:59;;;;;;;7.57;6.25;;;;;;;;;;5075370;28;20020;-61
2021/04/16 13:07:25;;;;;;;18.10;6.95;;;;;;;;;;5070730;28;20024;-67
2021/04/16 13:09:51;;;;;;;10.88;6.47;;;;;;;;;;5074274;28;20047;-68
2021/04/16 13:12:16;;;;;;;9.13;7.43;;;;;;;;;;5073616;28;20017;-66
2021/04/16 13:14:42;;;;;;;11.23;7.28;;;;;;;;;;5070886;28;20031;-65
2021/04/16 13:17:11;;;;;;;12.60;8.20;;;;;;;;;;5073119;28;20073;-67
2021/04/16 13:19:38;;;;;;;14.02;7.63;;;;;;;;;;5069419;28;20017;-66
